createdAt,value
2023-11-15T00:00:33.374Z,96051.19
2023-11-15T00:03:08.011Z,96052.67
2023-11-15T00:05:41.432Z,96053.33
2023-11-15T00:08:15.466Z,96055.84
2023-11-15T00:10:49.241Z,96054.73
2023-11-15T00:13:20.817Z,96052.27
2023-11-15T00:15:54.426Z,96049.94
2023-11-15T00:18:28.339Z,96051.02
2023-11-15T00:21:01.928Z,96051.99
2023-11-15T00:23:36.557Z,96052.61
2023-11-15T00:26:10.526Z,96052.79
2023-11-15T00:28:45.872Z,96055.11
2023-11-15T00:31:21.109Z,96053.00
2023-11-15T00:33:55.304Z,96053.08
2023-11-15T00:36:29.659Z,96053.30
2023-11-15T00:39:03.668Z,96054.29
2023-11-15T00:41:37.100Z,96052.88
2023-11-15T00:44:10.876Z,96055.71
2023-11-15T00:46:43.974Z,96055.44
2023-11-15T00:49:17.826Z,96055.05
2023-11-15T00:51:53.385Z,96058.31
2023-11-15T00:54:27.024Z,96057.23
2023-11-15T00:56:59.983Z,96057.18
2023-11-15T00:59:39.196Z,96057.40
2023-11-15T01:02:13.438Z,96051.74
2023-11-15T01:04:48.698Z,96051.86
2023-11-15T01:07:22.538Z,96046.70
2023-11-15T01:09:56.974Z,96042.86
2023-11-15T01:12:30.791Z,96039.98
2023-11-15T01:15:06.684Z,96034.64
2023-11-15T01:17:40.455Z,96036.34
2023-11-15T01:20:16.637Z,96035.09
2023-11-15T01:22:50.471Z,96032.48
2023-11-15T01:25:23.680Z,96031.73
2023-11-15T01:27:57.555Z,96029.14
2023-11-15T01:30:43.762Z,96028.70
2023-11-15T01:33:27.217Z,96026.03
2023-11-15T01:36:20.349Z,96026.85
2023-11-15T01:38:54.570Z,96021.83
2023-11-15T01:41:27.952Z,96024.31
2023-11-15T01:44:01.230Z,96024.44
2023-11-15T01:46:35.183Z,96022.21
2023-11-15T01:49:09.045Z,96023.45
2023-11-15T01:51:42.860Z,96021.95
2023-11-15T01:54:18.568Z,96020.83
2023-11-15T01:56:52.544Z,96021.01
2023-11-15T01:59:26.299Z,96023.09
2023-11-15T02:02:00.686Z,96027.45
2023-11-15T02:04:34.335Z,96039.64
2023-11-15T02:07:09.177Z,96039.21
2023-11-15T02:09:44.063Z,96043.66
2023-11-15T02:12:19.964Z,96041.67
2023-11-15T02:14:53.308Z,96042.15
2023-11-15T02:17:24.885Z,96042.95
2023-11-15T02:19:58.354Z,96037.30
2023-11-15T02:22:33.148Z,96038.05
2023-11-15T02:25:07.446Z,96037.07
2023-11-15T02:27:40.964Z,96043.22
2023-11-15T02:30:13.617Z,96040.20
2023-11-15T02:32:50.727Z,96042.45
2023-11-15T02:35:38.822Z,96045.60
2023-11-15T02:38:12.733Z,96045.37
2023-11-15T02:40:47.077Z,96042.55
2023-11-15T02:43:20.680Z,96044.21
2023-11-15T02:45:54.494Z,96045.24
2023-11-15T02:48:28.491Z,96046.48
2023-11-15T02:51:02.361Z,96045.22
2023-11-15T02:53:35.834Z,96043.96
2023-11-15T02:56:10.166Z,96045.77
2023-11-15T02:58:45.971Z,96045.27
2023-11-15T03:01:19.642Z,96046.46
2023-11-15T03:03:50.939Z,96046.66
2023-11-15T03:06:24.601Z,96048.61
2023-11-15T03:08:58.750Z,96048.26
2023-11-15T03:11:32.831Z,96051.27
2023-11-15T03:14:06.643Z,96053.25
2023-11-15T03:16:38.118Z,96053.52
2023-11-15T03:19:12.010Z,96051.82
2023-11-15T03:21:45.325Z,96057.43
2023-11-15T03:24:19.030Z,96048.92
2023-11-15T03:26:53.224Z,96051.20
2023-11-15T03:29:26.950Z,96051.46
2023-11-15T03:31:58.715Z,96049.35
2023-11-15T03:34:32.700Z,96049.02
2023-11-15T03:37:06.470Z,96053.55
2023-11-15T03:39:40.934Z,96055.77
2023-11-15T03:42:15.159Z,96054.24
2023-11-15T03:44:49.810Z,96054.09
2023-11-15T03:47:25.301Z,96055.45
2023-11-15T03:49:59.456Z,96055.92
2023-11-15T03:52:32.990Z,96053.86
2023-11-15T03:55:04.163Z,96055.14
2023-11-15T03:57:37.754Z,96051.46
2023-11-15T04:00:14.472Z,96056.47
2023-11-15T04:02:48.647Z,96059.55
2023-11-15T04:05:22.447Z,96059.58
2023-11-15T04:07:55.960Z,96057.90
2023-11-15T04:10:29.569Z,96062.55
2023-11-15T04:13:04.414Z,96056.91
2023-11-15T04:15:39.115Z,96059.58
2023-11-15T04:18:12.134Z,96056.18
2023-11-15T04:20:45.769Z,96056.65
2023-11-15T04:23:19.714Z,96059.18
2023-11-15T04:25:53.283Z,96056.38
2023-11-15T04:28:26.590Z,96054.69
2023-11-15T04:30:59.925Z,96051.80
2023-11-15T04:33:33.454Z,96051.67
2023-11-15T04:36:05.342Z,96050.92
2023-11-15T04:38:39.176Z,96052.38
2023-11-15T04:41:13.447Z,96052.17
2023-11-15T04:43:46.945Z,96048.08
2023-11-15T04:46:18.413Z,96048.95
2023-11-15T04:48:54.832Z,96051.72
2023-11-15T04:51:28.975Z,96055.12
2023-11-15T04:54:02.044Z,96057.48
2023-11-15T04:56:37.528Z,96056.75
2023-11-15T04:59:12.568Z,96051.64
2023-11-15T05:01:47.651Z,96052.56
2023-11-15T05:04:21.576Z,96054.88
2023-11-15T05:06:56.539Z,96054.27
2023-11-15T05:09:30.073Z,96056.98
2023-11-15T05:12:01.959Z,96056.46
2023-11-15T05:14:37.739Z,96055.19
2023-11-15T05:17:11.869Z,96055.81
2023-11-15T05:19:47.314Z,96058.40
2023-11-15T05:22:20.760Z,96056.05
2023-11-15T05:24:56.915Z,96061.81
2023-11-15T05:27:31.116Z,96063.73
2023-11-15T05:30:03.119Z,96060.03
2023-11-15T05:32:38.389Z,96065.08
2023-11-15T05:35:15.891Z,96064.92
2023-11-15T05:37:50.174Z,96066.15
2023-11-15T05:40:23.221Z,96063.67
2023-11-15T05:42:56.675Z,96069.17
2023-11-15T05:45:29.790Z,96065.99
2023-11-15T05:48:03.450Z,96065.85
2023-11-15T05:50:34.757Z,96067.91
2023-11-15T05:53:08.780Z,96068.16
2023-11-15T05:55:43.975Z,96069.67
2023-11-15T05:58:18.481Z,96070.98
2023-11-15T06:00:56.053Z,96076.73
2023-11-15T06:03:31.223Z,96075.33
2023-11-15T06:06:05.176Z,96079.30
2023-11-15T06:08:40.418Z,96078.99
2023-11-15T06:11:14.016Z,96080.55
2023-11-15T06:13:45.804Z,96087.33
2023-11-15T06:16:20.929Z,96093.08
2023-11-15T06:18:55.292Z,96096.23
2023-11-15T06:21:29.118Z,96103.75
2023-11-15T06:24:02.913Z,96105.95
2023-11-15T06:26:40.339Z,96104.95
2023-11-15T06:29:14.662Z,96110.09
2023-11-15T06:31:50.358Z,96110.40
2023-11-15T06:34:23.887Z,96112.73
2023-11-15T06:36:57.856Z,96115.84
2023-11-15T06:39:31.463Z,96117.73
2023-11-15T06:42:05.649Z,96119.15
2023-11-15T06:44:39.097Z,96121.27
2023-11-15T06:47:16.740Z,96123.88
2023-11-15T06:49:50.394Z,96126.38
2023-11-15T06:52:23.650Z,96126.96
2023-11-15T06:54:57.714Z,96133.96
2023-11-15T06:57:53.857Z,96135.27
2023-11-15T07:00:42.269Z,96140.29
2023-11-15T07:03:18.451Z,96138.80
2023-11-15T07:05:53.314Z,96145.39
2023-11-15T07:08:26.647Z,96141.31
2023-11-15T07:11:02.119Z,96144.55
2023-11-15T07:13:36.585Z,96149.03
2023-11-15T07:16:13.773Z,96150.34
2023-11-15T07:18:47.745Z,96153.71
2023-11-15T07:21:21.943Z,96154.98
2023-11-15T07:23:56.466Z,96153.23
2023-11-15T07:26:37.556Z,96154.59
2023-11-15T07:29:14.970Z,96154.95
2023-11-15T07:31:53.734Z,96158.59
2023-11-15T07:34:28.939Z,96156.14
2023-11-15T07:37:03.260Z,96158.27
2023-11-15T07:39:38.263Z,96162.66
2023-11-15T07:42:17.084Z,96164.13
2023-11-15T07:44:52.881Z,96167.60
2023-11-15T07:47:27.242Z,96166.55
2023-11-15T07:50:01.148Z,96172.60
2023-11-15T07:52:35.098Z,96175.27
2023-11-15T07:55:13.652Z,96179.40
2023-11-15T07:57:48.198Z,96178.15
2023-11-15T08:00:26.293Z,96180.78
2023-11-15T08:03:00.044Z,96181.23
2023-11-15T08:05:31.556Z,96184.14
2023-11-15T08:08:07.742Z,96182.09
2023-11-15T08:10:48.548Z,96182.92
2023-11-15T08:13:23.548Z,96186.48
2023-11-15T08:15:58.254Z,96187.02
2023-11-15T08:18:33.932Z,96188.31
2023-11-15T08:21:11.216Z,96192.30
2023-11-15T08:23:47.011Z,96192.77
2023-11-15T08:26:25.743Z,96193.69
2023-11-15T08:29:00.695Z,96192.67
2023-11-15T08:31:35.171Z,96198.92
2023-11-15T08:34:10.103Z,96202.48
2023-11-15T08:36:45.971Z,96205.09
2023-11-15T08:39:20.005Z,96209.42
2023-11-15T08:41:56.326Z,96215.36
2023-11-15T08:44:30.456Z,96218.95
2023-11-15T08:47:05.839Z,96224.19
2023-11-15T08:49:40.507Z,96225.50
2023-11-15T08:52:15.137Z,96228.05
2023-11-15T08:54:49.794Z,96226.71
2023-11-15T08:57:23.853Z,96227.08
2023-11-15T08:59:59.500Z,96236.09
2023-11-15T09:02:35.930Z,96233.89
2023-11-15T09:05:10.090Z,96237.50
2023-11-15T09:07:43.735Z,96242.45
2023-11-15T09:10:18.187Z,96246.88
2023-11-15T09:12:51.517Z,96243.95
2023-11-15T09:15:26.153Z,96246.98
2023-11-15T09:18:02.040Z,96248.25
2023-11-15T09:20:38.662Z,96253.19
2023-11-15T09:23:22.461Z,96251.83
2023-11-15T09:26:03.447Z,96257.27
2023-11-15T09:28:39.025Z,96258.41
2023-11-15T09:31:15.640Z,96264.17
2023-11-15T09:33:49.546Z,96265.04
2023-11-15T09:36:23.169Z,96274.39
2023-11-15T09:38:58.699Z,96274.96
2023-11-15T09:41:35.459Z,96277.59
2023-11-15T09:44:13.113Z,96279.16
2023-11-15T09:46:50.730Z,96278.96
2023-11-15T09:49:27.491Z,96278.77
2023-11-15T09:52:02.322Z,96281.52
2023-11-15T09:54:41.233Z,96278.98
2023-11-15T09:57:16.973Z,96275.70
2023-11-15T10:00:01.215Z,96277.99
2023-11-15T10:02:45.108Z,96277.64
2023-11-15T10:05:25.571Z,96278.58
2023-11-15T10:08:13.149Z,96280.74
2023-11-15T10:10:48.997Z,96286.64
2023-11-15T10:13:24.321Z,96289.79
2023-11-15T10:15:59.403Z,96293.06
2023-11-15T10:18:37.252Z,96296.16
2023-11-15T10:21:19.558Z,96297.91
2023-11-15T10:23:56.413Z,96297.73
2023-11-15T10:26:42.003Z,96299.63
2023-11-15T10:29:15.549Z,96303.47
2023-11-15T10:31:58.416Z,96302.99
2023-11-15T10:34:36.553Z,96304.58
2023-11-15T10:37:12.647Z,96303.23
2023-11-15T10:39:48.068Z,96308.59
2023-11-15T10:42:24.796Z,96308.41
2023-11-15T10:45:06.463Z,96317.11
2023-11-15T10:47:54.520Z,96319.55
2023-11-15T10:50:32.873Z,96317.70
2023-11-15T10:53:12.667Z,96319.48
2023-11-15T10:55:56.986Z,96320.61
2023-11-15T10:58:33.017Z,96319.30
2023-11-15T11:01:09.392Z,96320.66
2023-11-15T11:03:45.531Z,96326.17
2023-11-15T11:06:49.320Z,96327.23
2023-11-15T11:09:37.536Z,96327.72
2023-11-15T11:12:19.590Z,96330.61
2023-11-15T11:15:29.541Z,96333.21
2023-11-15T11:18:15.822Z,96336.37
2023-11-15T11:21:05.546Z,96343.03
2023-11-15T11:23:40.397Z,96342.27
2023-11-15T11:26:39.125Z,96343.77
2023-11-15T11:29:14.483Z,96344.16
2023-11-15T11:32:09.449Z,96349.38
2023-11-15T11:35:32.228Z,96349.17
2023-11-15T11:38:09.111Z,96350.81
2023-11-15T11:40:43.062Z,96352.26
2023-11-15T11:43:28.736Z,96360.01
2023-11-15T11:46:17.761Z,96371.77
2023-11-15T11:49:01.792Z,96375.51
2023-11-15T11:51:33.409Z,96369.10
2023-11-15T11:54:07.330Z,96378.27
2023-11-15T11:56:41.839Z,96378.19
2023-11-15T11:59:15.784Z,96377.55
2023-11-15T12:01:56.227Z,96381.65
2023-11-15T12:04:29.768Z,96379.95
2023-11-15T12:07:05.886Z,96383.95
2023-11-15T12:09:44.157Z,96387.33
2023-11-15T12:12:20.738Z,96386.17
2023-11-15T12:15:00.358Z,96395.19
2023-11-15T12:17:43.429Z,96392.36
2023-11-15T12:20:28.996Z,96394.64
2023-11-15T12:23:11.628Z,96393.66
2023-11-15T12:25:54.394Z,96391.02
2023-11-15T12:28:28.893Z,96392.70
2023-11-15T12:31:05.459Z,96392.30
2023-11-15T12:33:42.153Z,96392.45
2023-11-15T12:36:17.391Z,96392.53
2023-11-15T12:39:00.243Z,96403.02
2023-11-15T12:41:46.322Z,96407.98
2023-11-15T12:44:21.588Z,96401.84
2023-11-15T12:46:59.918Z,96405.02
2023-11-15T12:49:36.635Z,96404.83
2023-11-15T12:52:10.790Z,96405.92
2023-11-15T12:54:57.972Z,96404.46
2023-11-15T12:57:30.657Z,96408.48
2023-11-15T13:00:11.233Z,96413.92
2023-11-15T13:02:44.458Z,96417.53
2023-11-15T13:05:26.708Z,96418.09
2023-11-15T13:08:00.209Z,96422.04
2023-11-15T13:10:34.470Z,96421.60
2023-11-15T13:13:12.884Z,96422.63
2023-11-15T13:15:46.770Z,96436.48
2023-11-15T13:18:22.112Z,96444.86
2023-11-15T13:20:59.695Z,96453.28
2023-11-15T13:23:33.670Z,96455.36
2023-11-15T13:26:11.029Z,96451.49
2023-11-15T13:29:03.622Z,96448.39
2023-11-15T13:31:43.022Z,96450.06
2023-11-15T13:34:20.836Z,96449.61
2023-11-15T13:36:55.877Z,96449.73
2023-11-15T13:39:48.816Z,96454.61
2023-11-15T13:42:33.131Z,96461.34
2023-11-15T13:45:08.784Z,96463.83
2023-11-15T13:47:43.690Z,96469.20
2023-11-15T13:50:17.762Z,96469.67
2023-11-15T13:52:53.310Z,96470.48
2023-11-15T13:55:30.702Z,96477.15
2023-11-15T13:58:04.480Z,96479.58
2023-11-15T14:00:36.595Z,96479.80
2023-11-15T14:03:12.040Z,96480.66
2023-11-15T14:05:45.481Z,96486.68
2023-11-15T14:08:17.958Z,96486.42
2023-11-15T14:10:51.633Z,96495.49
2023-11-15T14:13:26.031Z,96504.00
2023-11-15T14:16:04.082Z,96506.77
2023-11-15T14:18:37.761Z,96507.69
2023-11-15T14:21:15.927Z,96515.33
2023-11-15T14:23:57.158Z,96524.34
2023-11-15T14:26:34.460Z,96522.97
2023-11-15T14:29:09.821Z,96535.02
2023-11-15T14:31:46.114Z,96545.86
2023-11-15T14:34:19.885Z,96547.23
2023-11-15T14:36:56.599Z,96556.05
2023-11-15T14:39:33.555Z,96566.52
2023-11-15T14:42:08.440Z,96564.06
2023-11-15T14:44:42.827Z,96572.27
2023-11-15T14:47:18.283Z,96577.81
2023-11-15T14:49:52.465Z,96582.44
2023-11-15T14:52:28.073Z,96587.02
2023-11-15T14:55:05.898Z,96589.59
2023-11-15T14:57:40.766Z,96598.64
2023-11-15T15:00:22.309Z,96600.47
2023-11-15T15:02:59.174Z,96611.17
2023-11-15T15:05:32.661Z,96618.87
2023-11-15T15:08:06.368Z,96625.79
2023-11-15T15:10:41.315Z,96630.64
2023-11-15T15:13:15.670Z,96632.32
2023-11-15T15:15:49.687Z,96631.73
2023-11-15T15:18:32.340Z,96634.45
2023-11-15T15:21:18.135Z,96633.44
2023-11-15T15:23:52.220Z,96641.61
2023-11-15T15:26:28.835Z,96646.23
2023-11-15T15:29:05.744Z,96645.16
2023-11-15T15:31:41.408Z,96653.73
2023-11-15T15:34:15.675Z,96656.25
2023-11-15T15:36:51.010Z,96667.42
2023-11-15T15:39:27.462Z,96672.27
2023-11-15T15:42:01.134Z,96673.91
2023-11-15T15:44:35.455Z,96678.55
2023-11-15T15:47:09.612Z,96680.96
2023-11-15T15:49:48.405Z,96683.83
2023-11-15T15:52:23.991Z,96688.31
2023-11-15T15:54:57.742Z,96689.79
2023-11-15T15:57:31.166Z,96698.64
2023-11-15T16:00:04.763Z,96702.63
2023-11-15T16:02:39.065Z,96710.55
2023-11-15T16:05:15.801Z,96714.46
2023-11-15T16:07:54.509Z,96716.96
2023-11-15T16:10:30.029Z,96714.61
2023-11-15T16:13:04.792Z,96718.77
2023-11-15T16:15:38.530Z,96725.30
2023-11-15T16:18:17.812Z,96729.99
2023-11-15T16:20:52.172Z,96735.33
2023-11-15T16:23:26.307Z,96736.14
2023-11-15T16:26:01.442Z,96739.23
2023-11-15T16:28:42.928Z,96738.88
2023-11-15T16:31:21.192Z,96737.48
2023-11-15T16:33:58.921Z,96737.15
2023-11-15T16:36:39.553Z,96741.92
2023-11-15T16:39:17.480Z,96744.84
2023-11-15T16:41:57.042Z,96747.63
2023-11-15T16:44:35.552Z,96752.84
2023-11-15T16:47:11.880Z,96757.63
2023-11-15T16:49:48.604Z,96765.25
2023-11-15T16:52:25.122Z,96768.18
2023-11-15T16:54:58.840Z,96774.36
2023-11-15T16:57:32.658Z,96774.61
2023-11-15T17:00:07.772Z,96781.11
2023-11-15T17:02:43.379Z,96788.79
2023-11-15T17:05:20.081Z,96794.17
2023-11-15T17:07:53.409Z,96799.74
2023-11-15T17:10:28.797Z,96799.40
2023-11-15T17:13:05.745Z,96802.88
2023-11-15T17:15:39.317Z,96806.19
2023-11-15T17:18:13.754Z,96808.25
2023-11-15T17:20:49.704Z,96809.29
2023-11-15T17:23:24.550Z,96810.46
2023-11-15T17:26:00.303Z,96814.56
2023-11-15T17:28:34.505Z,96817.13
2023-11-15T17:31:08.295Z,96812.46
2023-11-15T17:33:44.728Z,96812.88
2023-11-15T17:36:18.510Z,96816.36
2023-11-15T17:38:50.292Z,96819.45
2023-11-15T17:41:24.064Z,96825.44
2023-11-15T17:43:55.217Z,96825.73
2023-11-15T17:46:30.380Z,96827.73
2023-11-15T17:49:03.627Z,96830.35
2023-11-15T17:51:37.124Z,96832.02
2023-11-15T17:54:12.257Z,96837.18
2023-11-15T17:56:47.260Z,96842.58
2023-11-15T17:59:21.434Z,96845.11
2023-11-15T18:01:58.252Z,96847.46
2023-11-15T18:04:32.111Z,96854.76
2023-11-15T18:07:06.679Z,96857.19
2023-11-15T18:09:41.704Z,96864.70
2023-11-15T18:12:15.303Z,96870.30
2023-11-15T18:14:48.674Z,96870.88
2023-11-15T18:17:22.762Z,96871.94
2023-11-15T18:19:53.829Z,96880.27
2023-11-15T18:22:28.840Z,96882.52
2023-11-15T18:25:02.405Z,96886.84
2023-11-15T18:27:37.772Z,96888.64
2023-11-15T18:30:15.122Z,96891.02
2023-11-15T18:32:49.966Z,96893.80
2023-11-15T18:35:23.426Z,96895.82
2023-11-15T18:37:58.515Z,96895.86
2023-11-15T18:40:33.738Z,96900.72
2023-11-15T18:43:07.599Z,96904.86
2023-11-15T18:45:42.080Z,96912.58
2023-11-15T18:48:15.594Z,96915.59
2023-11-15T18:50:49.446Z,96920.70
2023-11-15T18:53:23.994Z,96922.09
2023-11-15T18:56:01.684Z,96921.83
2023-11-15T18:58:40.402Z,96925.84
2023-11-15T19:01:15.052Z,96927.21
2023-11-15T19:03:49.591Z,96932.44
2023-11-15T19:06:28.154Z,96936.90
2023-11-15T19:09:23.114Z,96946.11
2023-11-15T19:13:06.067Z,96952.50
2023-11-15T19:24:07.474Z,96981.73
2023-11-15T19:26:39.882Z,96985.76
2023-11-15T19:29:13.364Z,96990.67
2023-11-15T19:31:48.325Z,97000.89
2023-11-15T19:34:20.474Z,96999.88
2023-11-15T19:36:53.942Z,97006.49
2023-11-15T19:39:27.676Z,97009.59
2023-11-15T19:42:00.027Z,97012.50
2023-11-15T19:44:32.154Z,97015.56
2023-11-15T19:47:06.378Z,97013.51
2023-11-15T19:49:40.458Z,97015.85
2023-11-15T19:52:16.045Z,97015.59
2023-11-15T19:54:50.512Z,97010.55
2023-11-15T19:57:22.797Z,97017.17
2023-11-15T19:59:55.664Z,97023.48
2023-11-15T20:02:34.364Z,97030.16
2023-11-15T20:05:12.387Z,97034.58
2023-11-15T20:07:44.673Z,97035.73
2023-11-15T20:10:17.151Z,97037.94
2023-11-15T20:12:49.997Z,97038.68
2023-11-15T20:15:23.509Z,97045.95
2023-11-15T20:17:53.935Z,97045.77
2023-11-15T20:20:26.477Z,97046.67
2023-11-15T20:23:02.765Z,97055.25
2023-11-15T20:25:35.329Z,97054.20
2023-11-15T20:28:08.564Z,97062.48
2023-11-15T20:30:41.275Z,97065.65
2023-11-15T20:33:13.900Z,97067.04
2023-11-15T20:35:46.434Z,97072.66
2023-11-15T20:38:19.240Z,97070.81
2023-11-15T20:40:52.624Z,97072.68
2023-11-15T20:43:25.706Z,97070.17
2023-11-15T20:46:10.312Z,97078.41
2023-11-15T20:48:49.014Z,97074.98
2023-11-15T20:51:22.871Z,97078.93
2023-11-15T20:53:57.018Z,97079.98
2023-11-15T20:56:29.354Z,97081.23
2023-11-15T20:59:08.394Z,97080.75
2023-11-15T21:01:40.842Z,97079.18
2023-11-15T21:04:20.418Z,97082.42
2023-11-15T21:06:54.482Z,97082.67
2023-11-15T21:09:26.586Z,97091.21
2023-11-15T21:11:58.781Z,97092.27
2023-11-15T21:14:31.597Z,97098.70
2023-11-15T21:17:03.806Z,97105.71
2023-11-15T21:19:36.052Z,97107.23
2023-11-15T21:22:08.643Z,97104.83
2023-11-15T21:24:42.817Z,97109.95
2023-11-15T21:27:15.937Z,97111.85
2023-11-15T21:29:47.939Z,97109.42
2023-11-15T21:32:20.213Z,97111.30
2023-11-15T21:34:52.207Z,97109.38
2023-11-15T21:37:25.425Z,97114.06
2023-11-15T21:39:58.225Z,97113.85
2023-11-15T21:42:30.309Z,97114.42
2023-11-15T21:45:02.281Z,97115.63
2023-11-15T21:47:34.847Z,97123.41
2023-11-15T21:50:07.913Z,97128.57
2023-11-15T21:52:41.023Z,97135.63
2023-11-15T21:55:13.839Z,97137.27
2023-11-15T21:57:47.280Z,97142.93
2023-11-15T22:00:22.584Z,97143.88
2023-11-15T22:02:57.296Z,97146.39
2023-11-15T22:05:31.210Z,97142.89
2023-11-15T22:08:04.360Z,97144.73
2023-11-15T22:10:36.248Z,97147.73
2023-11-15T22:13:09.072Z,97147.71
2023-11-15T22:15:41.523Z,97149.91
2023-11-15T22:18:18.122Z,97154.05
2023-11-15T22:20:56.606Z,97154.56
2023-11-15T22:23:30.328Z,97156.27
2023-11-15T22:26:02.258Z,97155.39
2023-11-15T22:28:34.317Z,97149.86
2023-11-15T22:31:07.483Z,97151.92
2023-11-15T22:33:39.498Z,97154.98
2023-11-15T22:36:12.693Z,97155.26
2023-11-15T22:38:45.982Z,97158.04
2023-11-15T22:41:18.505Z,97159.73
2023-11-15T22:43:50.917Z,97163.45
2023-11-15T22:46:25.886Z,97159.02
2023-11-15T22:48:58.510Z,97156.45
2023-11-15T22:51:30.825Z,97160.63
2023-11-15T22:54:03.027Z,97165.09
2023-11-15T22:56:35.193Z,97170.08
2023-11-15T22:59:08.944Z,97174.38
2023-11-15T23:01:40.941Z,97173.84
2023-11-15T23:04:17.189Z,97173.05
2023-11-15T23:06:55.724Z,97175.15
2023-11-15T23:09:28.373Z,97174.70
2023-11-15T23:12:00.524Z,97174.30
2023-11-15T23:14:33.238Z,97172.58
2023-11-15T23:17:05.731Z,97175.33
2023-11-15T23:19:37.918Z,97170.91
2023-11-15T23:22:10.061Z,97173.48
2023-11-15T23:24:42.900Z,97176.12
2023-11-15T23:27:17.212Z,97176.11
2023-11-15T23:29:49.471Z,97176.34
2023-11-15T23:32:23.110Z,97173.78
2023-11-15T23:34:56.866Z,97172.90
2023-11-15T23:37:28.846Z,97174.30
2023-11-15T23:40:01.235Z,97176.86
2023-11-15T23:42:33.385Z,97184.38
2023-11-15T23:45:08.196Z,97182.89
2023-11-15T23:47:40.273Z,97188.58
2023-11-15T23:50:14.364Z,97194.98
2023-11-15T23:52:46.352Z,97193.96
2023-11-15T23:55:19.413Z,97200.50
2023-11-15T23:57:52.199Z,97199.94
